Latest Weather Observations for Paraburdoo

IDW60801

Issued at 10:53 am WST Saturday 22 February 2020 (issued every 10 minutes, with the page automatically refreshed every 10 minutes)

About weather observations | Map of weather stations | Latest weather observations for WA | Other Formats
Station Details ID: 007185 Name: PARABURDOO AERO Lat: -23.17 Lon: 117.75 Height: 423.7 m
Data from the previous 72 hours. | See also: Recent months at Paraburdoo
Date/Time
WST
Temp
°C
App
Temp
°C
Dew
Point
°C
Rel
Hum
%
Delta-T
°C
Wind Press
QNH
hPa
Press
MSL
hPa
Rain since
9am
mm
Dir  Spd
km/h
Gust
km/h
Spd
kts
Gust
kts
22/10:30am 29.5 32.8 22.5 66 4.8 SW 9 17 5 9 1013.3 1009.7 0.0
22/10:00am 28.9 31.2 21.4 64 5.1 WSW 11 17 6 9 1013.6 1009.9 0.0
22/09:30am 28.7 31.4 22.2 68 4.5 W 11 15 6 8 1013.7 1010.0 0.0
22/09:00am 28.2 31.7 22.2 70 4.1 NW 7 15 4 8 1013.8 1010.1 4.6
22/08:30am 27.6 30.9 22.5 74 3.5 WNW 9 15 5 8 1013.8 1010.1 4.2
22/08:00am 26.7 30.6 21.2 72 3.7 NW 2 9 1 5 1013.4 1009.8 4.2
22/07:30am 25.9 30.2 21.1 75 3.2 CALM 0 0 0 0 1013.2 1009.6 4.2
22/07:00am 25.0 29.1 22.9 88 1.4 NW 6 7 3 4 1013.0 1009.4 4.2
22/06:30am 24.1 28.6 22.9 93 0.8 NW 4 9 2 5 1012.8 1009.2 4.2
22/06:00am 23.9 29.1 22.9 94 0.7 CALM 0 0 0 0 1012.6 1009.0 4.2
22/05:30am 23.7 28.7 22.5 93 0.8 CALM 0 0 0 0 1012.3 1008.7 4.2
22/05:00am 23.9 29.0 22.7 93 0.8 CALM 0 0 0 0 1012.0 1008.3 4.2
22/04:30am 23.9 27.8 22.5 92 1.0 NW 6 7 3 4 1011.8 1008.1 4.2
22/04:00am 23.9 27.6 22.5 92 1.0 NW 7 9 4 5 1011.6 1007.9 4.2
22/03:30am 23.9 28.8 22.3 91 1.1 CALM 0 0 0 0 1011.7 1008.0 4.2
22/03:00am 23.9 27.2 22.5 92 1.0 NW 9 9 5 5 1011.8 1008.1 4.2
22/02:30am 24.0 28.2 22.4 91 1.1 NW 4 7 2 4 1012.0 1008.3 4.2
22/02:00am 24.1 26.6 21.8 87 1.6 WNW 11 15 6 8 1012.0 1008.3 4.2
22/01:30am 24.4 26.6 21.9 86 1.7 WSW 13 17 7 9 1012.4 1008.8 4.0
22/01:00am 24.5 27.1 22.0 86 1.7 SE 11 17 6 9 1013.3 1009.7 3.2
22/12:56am 24.3 27.4 22.2 88 1.4 SSE 9 13 5 7 1013.4 1009.8 3.2
22/12:36am 24.9 24.9 21.6 82 2.2 SSW 24 30 13 16 1013.0 1009.4 2.0
22/12:30am 25.9 25.2 21.1 75 3.2 SSW 26 32 14 17 1012.8 1009.2 0.0
22/12:00am 28.0 26.0 21.1 66 4.7 WSW 33 41 18 22 1012.6 1009.0 0.0
 
Date/Time
WST
Temp
°C
App
Temp
°C
Dew
Point
°C
Rel
Hum
%
Delta-T
°C
Wind Press
QNH
hPa
Press
MSL
hPa
Rain since
9am
mm
Dir  Spd
km/h
Gust
km/h
Spd
kts
Gust
kts
21/11:53pm 28.8 29.4 21.1 63 5.2 WNW 19 39 10 21 1012.4 1008.8 0.0
21/11:30pm 30.1 32.2 20.9 57 6.2 NNW 11 15 6 8 1012.1 1008.5 0.0
21/11:00pm 29.5 32.6 22.2 65 5.0 NNE 9 9 5 5 1011.8 1008.1 0.0
21/10:30pm 29.6 33.3 22.3 65 5.0 NNE 6 9 3 5 1011.9 1008.2 0.0
21/10:00pm 29.3 32.6 22.5 67 4.7 NNE 9 11 5 6 1011.5 1007.8 0.0
21/09:30pm 29.6 33.2 22.3 65 5.0 E 7 7 4 4 1011.7 1008.0 0.0
21/09:00pm 29.7 32.2 21.1 60 5.8 ESE 9 11 5 6 1011.3 1007.6 0.0
21/08:30pm 29.6 32.5 21.0 60 5.8 SE 7 9 4 5 1010.8 1007.2 0.0
21/08:00pm 30.0 32.5 21.1 59 6.0 S 9 11 5 6 1010.3 1006.7 0.0
21/07:30pm 30.8 33.8 20.1 53 7.2 SSW 4 17 2 9 1010.1 1006.5 0.0
21/07:00pm 30.5 33.0 19.8 52 7.1 SSW 6 9 3 5 1009.6 1005.9 0.0
21/06:30pm 31.3 33.2 19.0 48 8.1 SSW 7 11 4 6 1009.2 1005.5 0.0
21/06:00pm 31.9 32.5 17.8 43 9.2 W 11 15 6 8 1008.7 1005.0 0.0
21/05:30pm 32.4 32.6 19.3 46 8.7 W 17 20 9 11 1008.4 1004.8 0.0
21/05:00pm 32.9 33.5 18.7 43 9.4 NW 13 30 7 16 1008.3 1004.7 0.0
21/04:30pm 34.5 35.6 18.1 37 10.8 N 9 19 5 10 1007.9 1004.3 0.0
21/04:00pm 34.8 36.4 19.2 39 10.5 N 9 17 5 9 1008.1 1004.5 0.0
21/03:30pm 34.5 36.0 18.9 39 10.4 NNE 9 17 5 9 1008.3 1004.7 0.0
21/03:00pm 34.2 35.2 18.7 40 10.3 N 11 17 6 9 1008.7 1005.0 0.0
21/02:30pm 34.3 35.2 17.5 36 11.0 NNE 9 17 5 9 1009.1 1005.4 0.0
21/02:00pm 35.2 36.4 18.3 36 11.2 NE 9 13 5 7 1009.4 1005.7 0.0
21/01:30pm 34.8 35.1 18.8 39 10.7 N 15 22 8 12 1009.8 1006.1 0.0
21/01:00pm 33.4 32.6 18.0 40 10.1 NNE 19 26 10 14 1010.3 1006.7 0.0
21/12:30pm 33.4 33.3 18.7 41 9.7 N 17 28 9 15 1010.7 1007.1 0.0
21/12:00pm 33.4 33.2 19.8 44 9.2 N 20 28 11 15 1011.0 1007.4 0.0
21/11:30am 32.5 31.9 20.4 49 8.2 N 24 32 13 17 1011.3 1007.6 0.0
21/11:00am 31.8 30.2 19.1 47 8.4 N 26 32 14 17 1011.7 1008.0 0.0
21/10:30am 31.3 30.6 19.6 49 7.8 N 22 32 12 17 1012.1 1008.5 0.0
21/10:00am 30.1 29.5 19.8 54 6.9 N 22 33 12 18 1012.3 1008.7 0.0
21/09:30am 29.2 28.4 19.2 54 6.6 N 22 30 12 16 1012.3 1008.7 0.0
21/09:00am 28.2 27.2 18.9 57 6.1 N 22 32 12 17 1012.3 1008.7 9.2
21/08:30am 27.5 25.7 17.9 55 6.2 N 24 30 13 16 1012.0 1008.3 9.2
21/08:00am 27.4 27.0 18.1 57 6.0 N 17 30 9 16 1012.0 1008.3 9.2
21/07:30am 26.5 26.8 17.8 58 5.6 NNE 13 17 7 9 1011.9 1008.2 9.2
21/07:00am 24.8 25.4 18.5 68 4.1 N 13 19 7 10 1011.7 1008.0 9.2
21/06:30am 24.4 24.4 18.1 68 4.0 N 15 20 8 11 1011.2 1007.5 9.2
21/06:00am 23.7 24.2 18.4 72 3.4 NNE 13 15 7 8 1010.8 1007.2 9.2
21/05:30am 23.5 23.9 19.0 76 2.9 N 15 19 8 10 1010.9 1007.3 9.2
21/05:00am 23.6 24.5 19.3 77 2.8 N 13 17 7 9 1010.9 1007.3 9.2
21/04:30am 23.5 24.6 19.6 79 2.5 N 13 17 7 9 1011.2 1007.5 9.2
21/04:00am 23.2 24.5 20.2 83 2.0 N 13 19 7 10 1011.2 1007.5 9.2
21/03:30am 23.5 24.6 20.4 83 2.0 N 15 22 8 12 1011.3 1007.6 9.2
21/03:00am 23.8 24.5 19.7 78 2.7 N 15 19 8 10 1011.5 1007.8 9.2
21/02:30am 24.2 24.5 19.5 75 3.1 N 17 22 9 12 1011.6 1007.9 9.2
21/02:00am 24.4 24.3 18.8 71 3.6 N 17 22 9 12 1011.6 1007.9 9.2
21/01:30am 23.9 23.2 19.6 77 2.8 N 22 28 12 15 1011.6 1007.9 9.2
21/01:00am 23.4 24.6 20.7 85 1.8 N 15 22 8 12 1012.8 1009.2 9.2
21/12:30am 22.8 25.3 21.1 90 1.1 N 9 11 5 6 1013.2 1009.6 9.0
21/12:00am 22.9 25.9 21.2 90 1.1 ENE 7 9 4 5 1014.3 1010.7 9.0
 
Date/Time
WST
Temp
°C
App
Temp
°C
Dew
Point
°C
Rel
Hum
%
Delta-T
°C
Wind Press
QNH
hPa
Press
MSL
hPa
Rain since
9am
mm
Dir  Spd
km/h
Gust
km/h
Spd
kts
Gust
kts
20/11:30pm 22.6 25.5 21.1 91 1.0 NE 7 9 4 5 1014.7 1011.1 9.0
20/11:00pm 22.6 25.1 21.1 91 1.0 NE 9 13 5 7 1015.4 1011.8 9.0
20/10:30pm 22.5 25.6 21.0 91 1.0 WSW 6 9 3 5 1015.0 1011.4 8.6
20/10:00pm 22.8 24.4 20.7 88 1.4 WSW 13 17 7 9 1014.5 1010.9 8.2
20/09:30pm 22.7 24.2 21.2 91 1.0 NW 15 19 8 10 1014.6 1011.0 7.4
20/09:00pm 22.7 23.7 20.2 86 1.6 SSW 15 20 8 11 1013.8 1010.1 6.6
20/08:30pm 22.7 24.9 20.4 87 1.5 SSW 9 15 5 8 1013.7 1010.0 5.8
20/08:00pm 23.1 22.2 20.6 86 1.7 S 26 35 14 19 1012.7 1009.1 4.6
20/07:51pm 23.1 21.8 20.6 86 1.7 S 28 39 15 21 1012.1 1008.5 4.4
20/07:37pm 23.0 21.6 20.5 86 1.6 S 28 43 15 23 1011.7 1008.0 3.8
20/07:30pm 23.2 22.1 20.3 84 1.9 S 26 37 14 20 1011.8 1008.1 3.0
20/07:00pm 24.3 23.5 20.0 77 2.8 S 24 37 13 20 1010.2 1006.6 2.4
20/06:30pm 23.7 22.6 20.2 81 2.3 S 26 37 14 20 1009.3 1005.6 2.0
20/06:00pm 24.0 24.4 20.9 83 2.1 SSE 20 28 11 15 1010.2 1006.6 2.0
20/05:30pm 24.2 24.3 21.9 87 1.6 SSE 24 32 13 17 1010.2 1006.6 1.8
20/05:00pm 25.9 28.8 20.7 73 3.5 N 6 13 3 7 1010.2 1006.6 1.0
20/04:30pm 26.7 24.9 20.3 68 4.3 N 30 44 16 24 1009.6 1005.9 0.0
20/04:20pm 28.7 26.1 17.9 52 7.0 NNW 28 52 15 28 1009.3 1005.6 0.0
20/04:00pm 30.8 30.7 18.8 48 7.9 NW 17 24 9 13 1007.7 1004.1 0.0
20/03:30pm 32.6 31.9 16.4 37 10.4 NNW 15 28 8 15 1006.6 1002.9 0.0
20/03:00pm 35.9 36.0 15.6 30 13.0 ENE 9 22 5 12 1006.8 1003.1 0.0
20/02:30pm 36.7 37.0 14.6 26 14.0 SSW 6 9 3 5 1007.2 1003.5 0.0
20/02:00pm 37.5 37.9 14.7 25 14.5 NE 6 9 3 5 1007.8 1004.2 0.0
20/01:30pm 36.9 36.4 15.9 28 13.5 NNE 13 22 7 12 1008.2 1004.6 0.0
20/01:00pm 35.6 35.2 15.3 29 12.9 ENE 11 19 6 10 1008.7 1005.0 0.0
20/12:30pm 35.5 35.5 16.3 32 12.4 NNE 11 20 6 11 1009.1 1005.4 0.0
20/12:00pm 34.8 34.4 16.1 32 12.0 NE 13 24 7 13 1009.4 1005.7 0.0
20/11:30am 34.5 33.6 16.8 34 11.5 NNE 17 24 9 13 1009.7 1006.0 0.0
20/11:00am 32.8 32.1 17.4 39 10.0 NNE 17 26 9 14 1010.2 1006.6 0.0
20/10:30am 32.0 29.9 17.1 41 9.6 NNE 24 33 13 18 1010.5 1006.9 0.0
20/10:00am 30.7 29.1 18.4 47 8.1 ENE 24 35 13 19 1010.9 1007.3 0.0
20/09:30am 29.5 28.9 18.9 53 7.0 ENE 20 28 11 15 1011.0 1007.4 0.0
20/09:00am 28.4 28.5 19.1 57 6.1 NE 17 24 9 13 1011.2 1007.5 0.2
20/08:30am 27.0 27.1 18.3 59 5.6 ENE 15 20 8 11 1011.2 1007.5 0.2
20/08:00am 26.9 26.9 19.0 62 5.2 ENE 17 22 9 12 1011.2 1007.5 0.2
20/07:30am 25.3 24.6 18.2 64 4.6 E 19 26 10 14 1011.2 1007.5 0.2
20/07:00am 24.9 24.4 17.9 65 4.5 SE 17 24 9 13 1010.9 1007.3 0.2
20/06:30am 25.0 25.4 18.2 66 4.4 E 13 22 7 12 1011.2 1007.5 0.2
20/06:00am 24.9 24.1 18.1 66 4.4 E 19 32 10 17 1011.4 1007.7 0.2
20/05:30am 25.1 22.5 17.8 64 4.7 E 28 37 15 20 1011.3 1007.6 0.2
20/05:00am 24.9 23.4 17.6 64 4.6 ENE 22 28 12 15 1011.3 1007.6 0.2
20/04:30am 25.3 26.0 18.0 64 4.7 SE 11 19 6 10 1010.7 1007.1 0.2
20/04:00am 25.4 25.4 17.1 60 5.3 S 13 17 7 9 1010.3 1006.7 0.2
20/03:30am 25.4 23.5 17.6 62 5.0 SE 24 37 13 20 1009.2 1005.5 0.2
20/03:00am 24.7 20.8 17.9 66 4.3 SSE 35 48 19 26 1009.2 1005.5 0.2
20/02:30am 24.1 21.8 19.4 75 3.1 SSE 30 44 16 24 1010.3 1006.7 0.0
20/02:00am 24.8 24.9 19.2 71 3.6 S 17 32 9 17 1011.9 1008.2 0.0
20/01:30am 25.5 26.2 19.6 70 3.9 SW 15 20 8 11 1012.4 1008.8 0.0
20/01:00am 25.4 27.1 20.2 73 3.4 WSW 11 17 6 9 1013.0 1009.4 0.0
20/12:30am 25.4 26.3 20.0 72 3.6 WSW 15 22 8 12 1012.9 1009.3 0.0
20/12:00am 26.0 25.6 19.4 67 4.3 WSW 20 26 11 14 1012.9 1009.3 0.0
 
Date/Time
WST
Temp
°C
App
Temp
°C
Dew
Point
°C
Rel
Hum
%
Delta-T
°C
Wind Press
QNH
hPa
Press
MSL
hPa
Rain since
9am
mm
Dir  Spd
km/h
Gust
km/h
Spd
kts
Gust
kts
19/11:30pm 26.8 26.1 19.4 64 4.9 SW 22 32 12 17 1012.5 1008.9 0.0
19/11:00pm 27.7 24.9 19.0 59 5.7 WSW 32 41 17 22 1011.7 1008.0 0.0
19/10:30pm 29.0 25.1 18.7 53 6.7 W 37 46 20 25 1010.9 1007.3 0.0
19/10:14pm 30.6 27.6 17.7 46 8.4 WSW 30 50 16 27 1010.6 1007.0 0.0
19/10:00pm 31.6 28.3 17.1 41 9.4 WSW 30 41 16 22 1010.3 1006.7 0.0
19/09:58pm 31.8 28.3 16.5 39 9.8 WSW 30 41 16 22 1010.3 1006.7 0.0
19/09:30pm 33.0 32.0 15.5 35 11.1 SSW 15 19 8 10 1009.6 1005.9 0.0
19/09:00pm 32.3 32.8 17.4 41 9.7 S 11 15 6 8 1009.1 1005.4 0.0
19/08:30pm 32.4 33.5 17.1 40 9.9 SSE 7 11 4 6 1008.8 1005.1 0.0
19/08:00pm 33.1 33.6 15.1 33 11.4 SE 6 7 3 4 1008.4 1004.8 0.0
19/07:30pm 33.3 33.6 14.4 32 11.8 SE 6 9 3 5 1007.8 1004.2 0.0
19/07:00pm 33.6 33.6 14.1 30 12.2 SE 7 9 4 5 1007.4 1003.7 0.0
19/06:30pm 34.1 34.2 15.5 32 11.8 ESE 9 13 5 7 1007.2 1003.5 0.0
19/06:00pm 34.6 34.0 13.4 28 13.1 ESE 9 17 5 9 1006.8 1003.1 0.0
19/05:30pm 34.3 32.1 13.2 28 13.0 ESE 17 24 9 13 1006.8 1003.1 0.0
19/05:00pm 34.5 30.4 12.8 27 13.3 ESE 26 33 14 18 1006.9 1003.2 0.0
19/04:30pm 34.5 29.3 12.8 27 13.3 SE 32 43 17 23 1007.2 1003.5 0.0
19/04:00pm 37.4 34.7 13.4 24 15.0 SE 20 28 11 15 1006.9 1003.2 0.0
19/03:30pm 38.8 36.7 11.0 19 16.8 NW 13 20 7 11 1007.1 1003.4 0.0
19/03:00pm 39.2 37.9 11.3 19 17.0 WNW 9 17 5 9 1007.4 1003.7 0.0
19/02:30pm 37.5 36.5 12.2 22 15.5 NNW 9 13 5 7 1007.8 1004.2 0.0
19/02:00pm 38.0 37.0 13.3 23 15.4 NNE 11 24 6 13 1008.2 1004.6 0.0
19/01:30pm 37.7 35.3 13.7 24 15.0 ENE 19 28 10 15 1008.7 1005.0 0.0
19/01:00pm 37.5 34.4 13.5 24 15.0 NE 22 33 12 18 1009.0 1005.3 0.0
19/12:30pm 36.2 33.5 13.0 24 14.3 NE 19 28 10 15 1009.7 1006.0 0.0
19/12:00pm 35.7 32.1 13.2 26 13.9 NE 24 33 13 18 1010.3 1006.7 0.0
19/11:30am 35.1 31.6 13.3 27 13.5 NE 24 35 13 19 1010.9 1007.3 0.0
19/11:00am 34.3 31.4 15.2 31 12.1 NE 24 33 13 18 1011.7 1008.0 0.0

Other formats

Comma delimited format used in spreadsheet applications
http://www.bom.gov.au/fwo/IDW60801/IDW60801.94316.axf

JavaScript Object Notation format (JSON) in row-major order
http://www.bom.gov.au/fwo/IDW60801/IDW60801.94316.json

Data quality

Most of these data are generated automatically and are frequently updated. Quality checks on data are not normally performed. It is possible for incorrect values to appear. Refer to information at About Latest Weather Observations and please check the disclaimer before using these data.